Time;durP1;ratioP1;P1;durP2;ratioP2;P2;SDS_P1;SDS_P2;PMS_P1;PMS_P2;Temp;Humidity;BMP_temperature;BMP_pressure;BME280_temperature;BME280_humidity;BME280_pressure;Samples;Min_cycle;Max_cycle;Signal;HPM_P1;HPM_P2
2022/12/30 00:01:17;;;;;;;;;;;8.60;99.90;;;;;;7338140;19;109660;-87
2022/12/30 00:03:47;;;;;;;;;;;8.60;99.90;;;;;;7341245;19;111495;-86
2022/12/30 00:06:16;;;;;;;;;;;8.60;99.90;;;;;;7344688;19;112078;-87
2022/12/30 00:08:47;;;;;;;;;;;8.60;99.90;;;;;;7338140;19;109524;-87
2022/12/30 00:11:15;;;;;;;;;;;8.60;99.90;;;;;;7338835;19;110100;-87
2022/12/30 00:33:25;;;;;;;;;;;8.50;99.90;;;;;;7337807;19;110833;-85
2022/12/30 00:35:52;;;;;;;;;;;8.50;99.90;;;;;;7340740;19;109174;-85
2022/12/30 00:38:19;;;;;;;;;;;8.50;99.90;;;;;;7337556;19;108882;-85
2022/12/30 00:43:31;;;;;;;;;;;8.40;99.90;;;;;;7336502;19;108336;-85
2022/12/30 00:45:58;;;;;;;;;;;8.40;99.90;;;;;;7338600;19;109344;-85
2022/12/30 00:56:44;;;;;;;;;;;8.40;99.90;;;;;;7340215;19;108618;-85
2022/12/30 00:59:12;;;;;;;;;;;8.40;99.90;;;;;;7338114;19;109084;-85
2022/12/30 01:01:39;;;;;;;;;;;8.30;99.90;;;;;;7338768;19;110182;-85
2022/12/30 01:04:19;;;;;;;;;;;8.30;99.90;;;;;;7334927;19;108509;-85
2022/12/30 01:06:46;;;;;;;;;;;8.30;99.90;;;;;;7335736;19;111580;-85
2022/12/30 01:09:13;;;;;;;;;;;8.30;99.90;;;;;;7336080;19;110501;-86
2022/12/30 01:11:40;;;;;;;;;;;8.30;99.90;;;;;;7336358;19;108553;-85
2022/12/30 01:14:07;;;;;;;;;;;8.30;99.90;;;;;;7340418;19;109259;-85
2022/12/30 01:16:34;;;;;;;;;;;8.30;99.90;;;;;;7337799;19;108838;-85
2022/12/30 01:19:01;;;;;;;;;;;8.30;99.90;;;;;;7338758;19;109617;-85
2022/12/30 01:21:28;;;;;;;;;;;8.20;99.90;;;;;;7335448;19;110090;-84
2022/12/30 01:23:55;;;;;;;;;;;8.20;99.90;;;;;;7334988;19;109278;-85
2022/12/30 01:26:21;;;;;;;;;;;8.20;99.90;;;;;;7336013;19;111663;-85
2022/12/30 01:28:48;;;;;;;;;;;8.20;99.90;;;;;;7336558;19;110668;-85
2022/12/30 01:31:16;;;;;;;;;;;8.20;99.90;;;;;;7334754;19;109446;-85
2022/12/30 01:33:43;;;;;;;;;;;8.20;99.90;;;;;;7335929;19;109500;-85
2022/12/30 01:36:10;;;;;;;;;;;8.20;99.90;;;;;;7340132;19;111641;-85
2022/12/30 01:38:37;;;;;;;;;;;8.10;99.90;;;;;;7334802;19;112305;-85
2022/12/30 01:41:04;;;;;;;;;;;8.10;99.90;;;;;;7334959;19;110440;-85
2022/12/30 01:43:42;;;;;;;;;;;8.10;99.90;;;;;;7334995;19;108404;-86
2022/12/30 01:46:10;;;;;;;;;;;8.10;99.90;;;;;;7338033;19;111274;-85
2022/12/30 01:48:38;;;;;;;;;;;8.10;99.90;;;;;;7333716;19;113311;-85
2022/12/30 01:51:08;;;;;;;;;;;8.10;99.90;;;;;;7334512;19;110003;-85
2022/12/30 01:53:37;;;;;;;;;;;8.00;99.90;;;;;;7334263;19;110074;-85
2022/12/30 01:56:16;;;;;;;;;;;8.00;99.90;;;;;;7334953;19;110341;-85
2022/12/30 01:58:46;;;;;;;;;;;8.00;99.90;;;;;;7340195;19;109946;-85
2022/12/30 02:01:13;;;;;;;;;;;8.00;99.90;;;;;;7334860;19;113599;-88
2022/12/30 02:03:44;;;;;;;;;;;8.00;99.90;;;;;;7333306;19;108679;-85
2022/12/30 02:06:13;;;;;;;;;;;7.90;99.90;;;;;;7335450;19;111488;-85
2022/12/30 02:08:40;;;;;;;;;;;7.90;99.90;;;;;;7336064;19;110388;-87
2022/12/30 02:11:07;;;;;;;;;;;7.90;99.90;;;;;;7337343;19;109853;-88
2022/12/30 02:13:37;;;;;;;;;;;7.80;99.90;;;;;;7331953;19;120034;-87
2022/12/30 02:16:37;;;;;;;;;;;7.80;99.90;;;;;;7338197;19;110367;-87
2022/12/30 02:19:16;;;;;;;;;;;7.80;99.90;;;;;;7335705;19;109412;-87
2022/12/30 02:22:02;;;;;;;;;;;7.80;99.90;;;;;;7338657;19;109571;-86
2022/12/30 02:24:34;;;;;;;;;;;7.80;99.90;;;;;;7334263;19;108836;-87
2022/12/30 02:27:20;;;;;;;;;;;7.70;99.90;;;;;;7331732;19;110232;-87
2022/12/30 02:30:02;;;;;;;;;;;7.70;99.90;;;;;;7333250;19;110194;-87
2022/12/30 02:32:32;;;;;;;;;;;7.60;99.90;;;;;;7334364;19;109873;-88
2022/12/30 02:35:10;;;;;;;;;;;7.50;99.90;;;;;;7332570;19;109808;-87
2022/12/30 02:37:42;;;;;;;;;;;7.50;99.90;;;;;;7331373;19;110422;-88
2022/12/30 02:40:15;;;;;;;;;;;7.50;99.90;;;;;;7333923;19;109310;-88
2022/12/30 02:45:55;;;;;;;;;;;7.40;99.90;;;;;;7336267;19;109228;-87
2022/12/30 02:48:26;;;;;;;;;;;7.50;99.90;;;;;;7332455;19;110670;-89
2022/12/30 02:53:41;;;;;;;;;;;7.50;99.90;;;;;;7332100;19;108842;-87
2022/12/30 02:56:08;;;;;;;;;;;7.40;99.90;;;;;;7333817;19;109184;-87
2022/12/30 02:58:47;;;;;;;;;;;7.40;99.90;;;;;;7332795;19;109910;-86
2022/12/30 03:04:51;;;;;;;;;;;7.40;99.90;;;;;;7331595;19;108995;-87
2022/12/30 03:07:41;;;;;;;;;;;7.40;99.90;;;;;;7329252;19;113564;-87
2022/12/30 03:13:12;;;;;;;;;;;7.30;99.90;;;;;;7329048;19;110934;-87
2022/12/30 03:15:46;;;;;;;;;;;7.30;99.90;;;;;;7330983;19;108322;-87
2022/12/30 03:18:14;;;;;;;;;;;7.30;99.90;;;;;;7329291;19;109938;-87
2022/12/30 03:20:41;;;;;;;;;;;7.20;99.90;;;;;;7333078;19;111124;-87
2022/12/30 03:28:44;;;;;;;;;;;7.30;99.90;;;;;;7329966;19;110427;-88
2022/12/30 03:31:13;;;;;;;;;;;7.20;99.90;;;;;;7337558;19;108954;-87
2022/12/30 03:33:40;;;;;;;;;;;7.20;99.90;;;;;;7328734;19;110415;-86
2022/12/30 03:36:16;;;;;;;;;;;7.20;99.90;;;;;;7329559;19;108377;-85
2022/12/30 03:38:46;;;;;;;;;;;7.20;99.90;;;;;;7333679;19;113786;-86
2022/12/30 03:41:13;;;;;;;;;;;7.20;99.90;;;;;;7329641;19;111412;-86
2022/12/30 03:43:41;;;;;;;;;;;7.20;99.90;;;;;;7330764;19;108968;-87
2022/12/30 03:46:08;;;;;;;;;;;7.20;99.90;;;;;;7330842;19;111748;-88
2022/12/30 03:48:35;;;;;;;;;;;7.20;99.90;;;;;;7335629;19;110233;-84
2022/12/30 03:51:02;;;;;;;;;;;7.20;99.90;;;;;;7339984;19;108623;-86
2022/12/30 03:53:29;;;;;;;;;;;7.10;99.90;;;;;;7343829;19;112041;-86
2022/12/30 03:55:56;;;;;;;;;;;7.20;99.90;;;;;;7339040;19;108375;-85
2022/12/30 03:58:23;;;;;;;;;;;7.20;99.90;;;;;;7336311;19;113159;-88
2022/12/30 04:00:50;;;;;;;;;;;7.20;99.90;;;;;;7334538;19;111223;-86
2022/12/30 04:03:20;;;;;;;;;;;7.10;99.90;;;;;;7335899;19;108943;-87
2022/12/30 04:05:51;;;;;;;;;;;7.10;99.90;;;;;;7336176;19;109028;-86
2022/12/30 04:08:19;;;;;;;;;;;7.20;99.90;;;;;;7337283;19;110154;-84
2022/12/30 04:10:45;;;;;;;;;;;7.20;99.90;;;;;;7338301;19;108981;-86
2022/12/30 04:13:12;;;;;;;;;;;7.10;99.90;;;;;;7336563;19;109993;-86
2022/12/30 04:15:39;;;;;;;;;;;7.10;99.90;;;;;;7345467;19;111663;-87
2022/12/30 04:18:06;;;;;;;;;;;7.10;99.90;;;;;;7337946;19;111981;-84
2022/12/30 04:20:33;;;;;;;;;;;7.10;99.90;;;;;;7336177;19;112720;-85
2022/12/30 04:23:00;;;;;;;;;;;7.10;99.90;;;;;;7340380;19;110196;-85
2022/12/30 04:25:27;;;;;;;;;;;7.10;99.90;;;;;;7336516;19;109532;-85
2022/12/30 04:27:54;;;;;;;;;;;7.10;99.90;;;;;;7336497;19;110282;-85
2022/12/30 04:30:23;;;;;;;;;;;7.10;99.90;;;;;;7338958;19;110896;-85
2022/12/30 04:32:50;;;;;;;;;;;7.10;99.90;;;;;;7339364;19;110307;-84
2022/12/30 04:35:17;;;;;;;;;;;7.00;99.90;;;;;;7337871;19;110229;-85
2022/12/30 04:37:44;;;;;;;;;;;7.00;99.90;;;;;;7345295;19;109110;-85
2022/12/30 04:40:11;;;;;;;;;;;6.90;99.90;;;;;;7338362;19;113693;-85
2022/12/30 04:42:38;;;;;;;;;;;6.90;99.90;;;;;;7334284;19;108747;-85
2022/12/30 04:45:05;;;;;;;;;;;6.90;99.90;;;;;;7337354;19;111473;-85
2022/12/30 04:47:32;;;;;;;;;;;6.80;99.90;;;;;;7335515;19;114247;-85
2022/12/30 04:49:59;;;;;;;;;;;6.80;99.90;;;;;;7337310;19;108353;-85
2022/12/30 04:52:26;;;;;;;;;;;6.80;99.90;;;;;;7337410;19;111602;-85
2022/12/30 04:54:52;;;;;;;;;;;6.80;99.90;;;;;;7338085;19;109979;-85
2022/12/30 04:57:19;;;;;;;;;;;6.80;99.90;;;;;;7339045;19;109596;-85
2022/12/30 04:59:46;;;;;;;;;;;6.80;99.90;;;;;;7339858;19;112210;-85
2022/12/30 05:02:13;;;;;;;;;;;6.80;99.90;;;;;;7337579;19;108930;-84
2022/12/30 05:04:40;;;;;;;;;;;6.80;99.90;;;;;;7337067;19;111941;-85
2022/12/30 05:07:07;;;;;;;;;;;6.70;99.90;;;;;;7337383;19;109549;-85
2022/12/30 05:09:34;;;;;;;;;;;6.60;99.90;;;;;;7337548;19;109016;-85
2022/12/30 05:12:01;;;;;;;;;;;6.60;99.90;;;;;;7337070;19;109401;-85
2022/12/30 05:14:28;;;;;;;;;;;6.60;99.90;;;;;;7338012;19;110618;-85
2022/12/30 05:16:55;;;;;;;;;;;6.60;99.90;;;;;;7336729;19;109020;-85
2022/12/30 05:19:22;;;;;;;;;;;6.60;99.90;;;;;;7339361;19;108724;-85
2022/12/30 05:21:48;;;;;;;;;;;6.60;99.90;;;;;;7337494;19;109044;-85
2022/12/30 05:27:03;;;;;;;;;;;6.60;99.90;;;;;;7337636;19;110680;-84
2022/12/30 05:29:30;;;;;;;;;;;6.60;99.90;;;;;;7336327;19;109343;-85
2022/12/30 05:31:57;;;;;;;;;;;6.60;99.90;;;;;;7338814;19;110129;-85
2022/12/30 05:34:24;;;;;;;;;;;6.60;99.90;;;;;;7335789;19;110434;-85
2022/12/30 05:36:51;;;;;;;;;;;6.60;99.90;;;;;;7338856;19;109457;-85
2022/12/30 05:39:18;;;;;;;;;;;6.60;99.90;;;;;;7335921;19;109514;-84
2022/12/30 05:41:44;;;;;;;;;;;6.60;99.90;;;;;;7342753;19;110378;-85
2022/12/30 05:44:11;;;;;;;;;;;6.60;99.90;;;;;;7335782;19;109446;-85
2022/12/30 05:46:38;;;;;;;;;;;6.60;99.90;;;;;;7336321;19;114360;-85
2022/12/30 05:49:08;;;;;;;;;;;6.70;99.90;;;;;;7336365;19;108904;-85
2022/12/30 05:51:35;;;;;;;;;;;6.60;99.90;;;;;;7334110;19;109384;-85
2022/12/30 05:54:02;;;;;;;;;;;6.60;99.90;;;;;;7334893;19;114355;-85
2022/12/30 05:56:29;;;;;;;;;;;6.70;99.90;;;;;;7335948;19;108454;-85
2022/12/30 05:58:56;;;;;;;;;;;6.70;99.90;;;;;;7336253;19;109237;-85
2022/12/30 06:01:26;;;;;;;;;;;6.70;99.90;;;;;;7335651;19;110381;-85
2022/12/30 06:03:53;;;;;;;;;;;6.70;99.90;;;;;;7342110;19;112042;-85
2022/12/30 06:06:21;;;;;;;;;;;6.70;99.90;;;;;;7334327;19;110446;-86
2022/12/30 06:08:48;;;;;;;;;;;6.70;99.90;;;;;;7336268;19;111139;-85
2022/12/30 06:11:14;;;;;;;;;;;6.70;99.90;;;;;;7333265;19;113255;-85
2022/12/30 06:13:41;;;;;;;;;;;6.70;99.90;;;;;;7335056;19;109784;-85
2022/12/30 06:16:08;;;;;;;;;;;6.80;99.90;;;;;;7335934;19;109005;-85
2022/12/30 06:18:35;;;;;;;;;;;6.80;99.90;;;;;;7334220;19;108969;-85
2022/12/30 06:21:02;;;;;;;;;;;6.80;99.90;;;;;;7335497;19;113009;-85
2022/12/30 06:23:32;;;;;;;;;;;6.80;99.90;;;;;;7335919;19;108391;-85
2022/12/30 06:25:59;;;;;;;;;;;6.80;99.90;;;;;;7340755;19;109764;-85
2022/12/30 06:28:30;;;;;;;;;;;6.80;99.90;;;;;;7333297;19;108831;-86
2022/12/30 06:30:57;;;;;;;;;;;6.80;99.90;;;;;;7334074;19;111875;-86
2022/12/30 06:33:24;;;;;;;;;;;6.90;99.90;;;;;;7331677;19;112913;-86
2022/12/30 06:35:51;;;;;;;;;;;6.80;99.90;;;;;;7336614;19;109153;-86
2022/12/30 06:38:21;;;;;;;;;;;6.80;99.90;;;;;;7335806;19;109688;-86
2022/12/30 06:40:48;;;;;;;;;;;6.80;99.90;;;;;;7335072;19;110336;-86
2022/12/30 06:43:17;;;;;;;;;;;6.80;99.90;;;;;;7334627;19;108812;-86
2022/12/30 06:45:46;;;;;;;;;;;6.80;99.90;;;;;;7333867;19;108954;-86
2022/12/30 06:48:13;;;;;;;;;;;6.90;99.90;;;;;;7341588;19;111491;-86
2022/12/30 06:50:40;;;;;;;;;;;6.90;99.90;;;;;;7334028;19;109850;-86
2022/12/30 06:53:07;;;;;;;;;;;6.90;99.90;;;;;;7332170;19;110785;-85
2022/12/30 06:55:34;;;;;;;;;;;6.90;99.90;;;;;;7335129;19;108483;-85
2022/12/30 06:58:01;;;;;;;;;;;6.90;99.90;;;;;;7337278;19;109379;-84
2022/12/30 07:00:40;;;;;;;;;;;6.90;99.90;;;;;;7331513;19;110808;-85
2022/12/30 07:03:08;;;;;;;;;;;7.00;99.90;;;;;;7333373;19;109204;-86
2022/12/30 07:05:37;;;;;;;;;;;7.00;99.90;;;;;;7330678;19;108720;-85
2022/12/30 07:08:04;;;;;;;;;;;7.10;99.90;;;;;;7334531;19;113754;-85
2022/12/30 07:10:32;;;;;;;;;;;7.10;99.90;;;;;;7335740;19;108994;-85
2022/12/30 07:12:59;;;;;;;;;;;7.10;99.90;;;;;;7332786;19;110285;-85
2022/12/30 07:15:28;;;;;;;;;;;7.10;99.90;;;;;;7331424;19;108678;-86
2022/12/30 07:17:55;;;;;;;;;;;7.10;99.90;;;;;;7334803;19;110095;-85
2022/12/30 07:20:23;;;;;;;;;;;7.10;99.90;;;;;;7333712;19;111005;-85
2022/12/30 07:22:50;;;;;;;;;;;7.10;99.90;;;;;;7338364;19;109619;-86
2022/12/30 07:25:17;;;;;;;;;;;7.10;99.90;;;;;;7340455;19;111685;-85
2022/12/30 07:27:44;;;;;;;;;;;7.20;99.90;;;;;;7339429;19;109802;-85
2022/12/30 07:30:11;;;;;;;;;;;7.20;99.90;;;;;;7347844;19;109601;-85
2022/12/30 07:32:38;;;;;;;;;;;7.30;99.90;;;;;;7340713;19;118106;-85
2022/12/30 07:35:07;;;;;;;;;;;7.30;99.90;;;;;;7341918;19;108390;-84
2022/12/30 07:37:35;;;;;;;;;;;7.30;99.90;;;;;;7339193;19;109916;-84
2022/12/30 07:40:02;;;;;;;;;;;7.30;99.90;;;;;;7340954;19;110208;-85
2022/12/30 07:42:29;;;;;;;;;;;7.30;99.90;;;;;;7339341;19;108954;-85
2022/12/30 07:44:56;;;;;;;;;;;7.40;99.90;;;;;;7340756;19;109163;-85
2022/12/30 07:47:23;;;;;;;;;;;7.40;99.90;;;;;;7338700;19;113986;-85
2022/12/30 07:49:50;;;;;;;;;;;7.40;99.90;;;;;;7340534;19;109374;-84
2022/12/30 07:52:32;;;;;;;;;;;7.40;99.90;;;;;;7345079;19;109762;-85
2022/12/30 07:54:59;;;;;;;;;;;7.50;99.90;;;;;;7338766;19;109889;-85
2022/12/30 07:57:27;;;;;;;;;;;7.50;99.90;;;;;;7339357;19;111914;-85
2022/12/30 07:59:54;;;;;;;;;;;7.60;99.90;;;;;;7340282;19;110531;-86
2022/12/30 08:02:21;;;;;;;;;;;7.60;99.90;;;;;;7339945;19;109913;-85
2022/12/30 08:04:56;;;;;;;;;;;7.60;99.90;;;;;;7338222;19;108882;-86
2022/12/30 08:07:23;;;;;;;;;;;7.60;99.90;;;;;;7339717;19;110686;-85
2022/12/30 08:09:50;;;;;;;;;;;7.70;99.90;;;;;;7340429;19;108534;-85
2022/12/30 08:12:17;;;;;;;;;;;7.70;99.90;;;;;;7342333;19;110223;-85
2022/12/30 08:14:44;;;;;;;;;;;7.70;99.90;;;;;;7343813;19;110552;-85
2022/12/30 08:17:11;;;;;;;;;;;7.80;99.90;;;;;;7342887;19;109393;-85
2022/12/30 08:19:38;;;;;;;;;;;7.80;99.90;;;;;;7339069;19;110074;-85
2022/12/30 08:22:04;;;;;;;;;;;7.80;99.90;;;;;;7337971;19;109190;-84
2022/12/30 08:24:31;;;;;;;;;;;7.80;99.90;;;;;;7336264;19;108843;-85
2022/12/30 08:27:01;;;;;;;;;;;7.80;99.90;;;;;;7340053;19;110296;-85
2022/12/30 08:29:28;;;;;;;;;;;7.80;99.90;;;;;;7338751;19;114151;-85
2022/12/30 08:31:58;;;;;;;;;;;7.90;99.90;;;;;;7337443;19;109121;-86
2022/12/30 08:34:25;;;;;;;;;;;7.90;99.90;;;;;;7336710;19;111257;-87
2022/12/30 08:36:52;;;;;;;;;;;7.90;99.90;;;;;;7346336;19;108343;-90
2022/12/30 08:39:19;;;;;;;;;;;7.90;99.90;;;;;;7336159;19;110290;-88
2022/12/30 08:41:46;;;;;;;;;;;7.90;99.90;;;;;;7339462;19;109416;-89
2022/12/30 08:44:22;;;;;;;;;;;8.00;99.90;;;;;;7339198;19;112857;-90
2022/12/30 08:46:49;;;;;;;;;;;8.00;99.90;;;;;;7339857;19;110529;-90
2022/12/30 08:49:16;;;;;;;;;;;8.00;99.90;;;;;;7340927;19;109016;-89
2022/12/30 08:51:43;;;;;;;;;;;8.00;99.90;;;;;;7339584;19;111311;-88
2022/12/30 08:54:10;;;;;;;;;;;8.10;99.90;;;;;;7339697;19;109709;-90
2022/12/30 08:56:39;;;;;;;;;;;8.00;99.90;;;;;;7342406;19;108829;-90
2022/12/30 08:59:08;;;;;;;;;;;8.10;99.90;;;;;;7345099;19;109489;-90
2022/12/30 09:01:44;;;;;;;;;;;8.10;99.90;;;;;;7341838;19;108431;-89
2022/12/30 09:04:14;;;;;;;;;;;8.20;99.90;;;;;;7340038;19;109594;-89
2022/12/30 09:06:42;;;;;;;;;;;8.20;99.90;;;;;;7340803;19;110500;-90
2022/12/30 09:09:10;;;;;;;;;;;8.20;99.90;;;;;;7340735;19;108434;-90
2022/12/30 09:11:38;;;;;;;;;;;8.20;99.90;;;;;;7339517;19;108854;-90
2022/12/30 09:14:06;;;;;;;;;;;8.30;99.90;;;;;;7337760;19;109734;-85
2022/12/30 09:16:33;;;;;;;;;;;8.40;99.90;;;;;;7339878;19;110352;-85
2022/12/30 09:19:00;;;;;;;;;;;8.40;99.90;;;;;;7340023;19;109057;-85
2022/12/30 09:21:27;;;;;;;;;;;8.50;99.90;;;;;;7342734;19;113638;-85
2022/12/30 09:23:54;;;;;;;;;;;8.50;99.90;;;;;;7338713;19;112932;-85
2022/12/30 09:26:22;;;;;;;;;;;8.50;99.90;;;;;;7335454;19;110480;-85
2022/12/30 09:28:49;;;;;;;;;;;8.50;99.90;;;;;;7338653;19;110237;-85
2022/12/30 09:31:16;;;;;;;;;;;8.50;99.90;;;;;;7337338;19;111204;-84
2022/12/30 09:33:43;;;;;;;;;;;8.60;99.90;;;;;;7337040;19;110527;-84
2022/12/30 09:36:10;;;;;;;;;;;8.60;99.90;;;;;;7336400;19;108986;-84
2022/12/30 09:38:37;;;;;;;;;;;8.70;99.90;;;;;;7337862;19;109672;-85
2022/12/30 09:43:14;;;;;;;;;;;8.70;99.90;;;;;;7343282;19;110195;-84
2022/12/30 09:44:16;;;;;;;;;;;8.80;99.90;;;;;;7335081;19;111118;-86
2022/12/30 09:46:50;;;;;;;;;;;8.80;99.90;;;;;;7337972;19;113746;-85
2022/12/30 09:49:23;;;;;;;;;;;8.80;99.90;;;;;;7337898;19;108460;-84
2022/12/30 09:51:53;;;;;;;;;;;8.90;99.90;;;;;;7335994;19;109626;-85
2022/12/30 09:54:25;;;;;;;;;;;8.90;99.90;;;;;;7336218;19;110254;-84
2022/12/30 09:56:57;;;;;;;;;;;9.00;99.90;;;;;;7337607;19;108550;-84
2022/12/30 09:59:36;;;;;;;;;;;9.00;99.90;;;;;;7335819;19;111659;-85
2022/12/30 10:02:21;;;;;;;;;;;9.00;99.90;;;;;;7335828;19;110869;-86
2022/12/30 10:04:53;;;;;;;;;;;9.00;99.90;;;;;;7343473;19;109018;-86
2022/12/30 10:07:38;;;;;;;;;;;9.10;99.90;;;;;;7336087;19;113332;-86
2022/12/30 10:10:19;;;;;;;;;;;9.10;99.90;;;;;;7333919;19;108759;-86
2022/12/30 10:13:05;;;;;;;;;;;9.10;99.90;;;;;;7337394;19;109660;-86
2022/12/30 10:15:35;;;;;;;;;;;9.20;99.90;;;;;;7333891;19;110576;-86
2022/12/30 10:18:27;;;;;;;;;;;9.20;99.90;;;;;;7339144;19;109205;-86
2022/12/30 10:21:14;;;;;;;;;;;9.30;99.90;;;;;;7336078;19;109542;-86
2022/12/30 10:23:53;;;;;;;;;;;9.30;99.90;;;;;;7339178;19;109947;-86
2022/12/30 10:26:21;;;;;;;;;;;9.40;99.90;;;;;;7333538;19;109378;-86
2022/12/30 10:29:00;;;;;;;;;;;9.30;99.90;;;;;;7342705;19;109751;-86
2022/12/30 10:31:29;;;;;;;;;;;9.30;99.90;;;;;;7335707;19;108970;-87
2022/12/30 10:34:01;;;;;;;;;;;9.30;99.90;;;;;;7336654;19;109705;-86
2022/12/30 10:36:40;;;;;;;;;;;9.40;99.90;;;;;;7334339;19;113573;-86
2022/12/30 10:39:24;;;;;;;;;;;9.40;99.90;;;;;;7336574;19;108826;-86
2022/12/30 10:42:12;;;;;;;;;;;9.40;99.90;;;;;;7336003;19;111946;-87
2022/12/30 10:44:45;;;;;;;;;;;9.40;99.90;;;;;;7334624;19;110546;-87
2022/12/30 10:47:12;;;;;;;;;;;9.50;99.90;;;;;;7333561;19;109322;-85
2022/12/30 10:49:57;;;;;;;;;;;9.50;99.90;;;;;;7338241;19;112488;-88
2022/12/30 10:52:25;;;;;;;;;;;9.50;99.90;;;;;;7342677;19;110678;-87
2022/12/30 10:54:51;;;;;;;;;;;9.50;99.90;;;;;;7331847;19;111937;-87
2022/12/30 10:57:24;;;;;;;;;;;9.50;99.90;;;;;;7334740;19;110837;-86
2022/12/30 10:59:54;;;;;;;;;;;9.60;99.90;;;;;;7335702;19;108765;-88
2022/12/30 11:02:41;;;;;;;;;;;9.60;99.90;;;;;;7334387;19;108910;-86
2022/12/30 11:05:26;;;;;;;;;;;9.70;99.90;;;;;;7334999;19;110748;-87
2022/12/30 11:07:59;;;;;;;;;;;9.70;99.90;;;;;;7335594;19;108774;-86
2022/12/30 11:10:26;;;;;;;;;;;9.70;99.90;;;;;;7334383;19;110256;-87
2022/12/30 11:16:05;;;;;;;;;;;9.80;99.90;;;;;;7341061;19;108773;-86
2022/12/30 11:18:33;;;;;;;;;;;9.90;99.90;;;;;;7334520;19;110018;-87
2022/12/30 11:21:00;;;;;;;;;;;10.00;99.90;;;;;;7337328;19;109337;-87
2022/12/30 11:23:29;;;;;;;;;;;10.00;99.90;;;;;;7332623;19;109235;-87
2022/12/30 11:25:57;;;;;;;;;;;10.00;99.90;;;;;;7331836;19;110347;-87
2022/12/30 11:28:53;;;;;;;;;;;10.00;99.90;;;;;;7334347;19;109254;-86
2022/12/30 11:31:21;;;;;;;;;;;10.00;99.90;;;;;;7328786;19;109133;-86
2022/12/30 11:33:49;;;;;;;;;;;10.10;99.90;;;;;;7333817;19;110227;-86
2022/12/30 11:36:29;;;;;;;;;;;10.10;99.90;;;;;;7334713;19;110061;-87
2022/12/30 11:38:57;;;;;;;;;;;10.10;99.90;;;;;;7323758;19;109596;-86
2022/12/30 11:41:25;;;;;;;;;;;10.10;99.90;;;;;;7325394;19;109557;-87
2022/12/30 11:43:58;;;;;;;;;;;10.10;99.90;;;;;;7330844;19;109595;-86
2022/12/30 11:46:30;;;;;;;;;;;10.20;99.90;;;;;;7327497;19;110331;-87
2022/12/30 11:48:59;;;;;;;;;;;10.20;99.90;;;;;;7330506;19;110548;-87
2022/12/30 11:51:27;;;;;;;;;;;10.20;99.90;;;;;;7330832;19;112417;-87
2022/12/30 11:54:09;;;;;;;;;;;10.20;99.90;;;;;;7331770;19;110561;-87
2022/12/30 11:56:37;;;;;;;;;;;10.20;99.90;;;;;;7332172;19;108489;-85
2022/12/30 11:59:07;;;;;;;;;;;10.20;99.90;;;;;;7336206;19;111524;-87
2022/12/30 12:01:45;;;;;;;;;;;10.20;99.90;;;;;;7332149;19;108562;-86
2022/12/30 12:04:29;;;;;;;;;;;10.20;99.90;;;;;;7333350;19;109338;-86
2022/12/30 12:07:00;;;;;;;;;;;10.20;99.90;;;;;;7333936;19;110185;-87
2022/12/30 12:09:32;;;;;;;;;;;10.20;99.90;;;;;;7336408;19;108722;-86
2022/12/30 12:12:01;;;;;;;;;;;10.20;99.90;;;;;;7339005;19;109534;-86
2022/12/30 12:14:32;;;;;;;;;;;10.20;99.90;;;;;;7338645;19;110283;-86
2022/12/30 12:17:03;;;;;;;;;;;10.20;99.90;;;;;;7338433;19;109071;-87
2022/12/30 12:19:30;;;;;;;;;;;10.20;99.90;;;;;;7340292;19;109178;-87
2022/12/30 12:22:00;;;;;;;;;;;10.10;99.90;;;;;;7346035;19;110693;-87
2022/12/30 12:24:29;;;;;;;;;;;10.20;99.90;;;;;;7339688;19;110343;-87
2022/12/30 12:27:00;;;;;;;;;;;10.10;99.90;;;;;;7339128;19;110911;-86
2022/12/30 12:29:27;;;;;;;;;;;10.20;99.90;;;;;;7340161;19;108392;-88
2022/12/30 12:32:18;;;;;;;;;;;10.10;99.90;;;;;;7340367;19;110481;-86
2022/12/30 12:35:24;;;;;;;;;;;10.10;99.90;;;;;;7335472;19;110427;-85
2022/12/30 12:37:57;;;;;;;;;;;10.20;99.90;;;;;;7336066;19;109002;-86
2022/12/30 12:40:43;;;;;;;;;;;10.20;99.90;;;;;;7337174;19;108775;-87
2022/12/30 12:43:18;;;;;;;;;;;10.20;99.90;;;;;;7335618;19;113231;-87
2022/12/30 12:45:48;;;;;;;;;;;10.20;99.90;;;;;;7343267;19;109242;-86
2022/12/30 12:48:21;;;;;;;;;;;10.20;99.90;;;;;;7334074;19;110781;-87
2022/12/30 12:51:03;;;;;;;;;;;10.20;99.90;;;;;;7335665;19;109944;-86
2022/12/30 12:53:46;;;;;;;;;;;10.20;99.90;;;;;;7334746;19;109215;-87
2022/12/30 12:56:25;;;;;;;;;;;10.20;99.90;;;;;;7333984;19;110261;-87
2022/12/30 12:58:54;;;;;;;;;;;10.20;99.90;;;;;;7334442;19;109033;-87
2022/12/30 13:01:29;;;;;;;;;;;10.20;99.90;;;;;;7335968;19;109498;-87
2022/12/30 13:04:05;;;;;;;;;;;10.20;99.90;;;;;;7334483;19;109986;-87
2022/12/30 13:06:44;;;;;;;;;;;10.20;99.90;;;;;;7335826;19;109204;-87
2022/12/30 13:09:23;;;;;;;;;;;10.20;99.90;;;;;;7339524;19;109162;-88
2022/12/30 13:12:10;;;;;;;;;;;10.20;99.90;;;;;;7336161;19;109200;-88
2022/12/30 13:14:55;;;;;;;;;;;10.20;99.90;;;;;;7338856;19;109281;-88
2022/12/30 13:17:22;;;;;;;;;;;10.10;99.90;;;;;;7336132;19;110267;-88
2022/12/30 13:19:55;;;;;;;;;;;10.10;99.90;;;;;;7337785;19;108567;-88
2022/12/30 13:22:31;;;;;;;;;;;10.10;99.90;;;;;;7339852;19;109113;-88
2022/12/30 13:24:58;;;;;;;;;;;10.10;99.90;;;;;;7337926;19;110309;-88
2022/12/30 13:27:28;;;;;;;;;;;10.10;99.90;;;;;;7339541;19;108531;-87
2022/12/30 13:29:56;;;;;;;;;;;10.10;99.90;;;;;;7335675;19;111835;-87
2022/12/30 13:32:43;;;;;;;;;;;10.10;99.90;;;;;;7340685;19;117274;-87
2022/12/30 13:35:29;;;;;;;;;;;10.10;99.90;;;;;;7336212;19;109558;-87
2022/12/30 13:38:08;;;;;;;;;;;10.10;99.90;;;;;;7339989;19;110247;-87
2022/12/30 13:40:43;;;;;;;;;;;10.10;99.90;;;;;;7338725;19;108553;-88
2022/12/30 13:43:28;;;;;;;;;;;10.10;99.90;;;;;;7339343;19;109158;-88
2022/12/30 13:45:57;;;;;;;;;;;10.10;99.90;;;;;;7338627;19;110336;-88
2022/12/30 13:48:25;;;;;;;;;;;10.20;99.90;;;;;;7334211;19;110025;-88
2022/12/30 13:51:05;;;;;;;;;;;10.20;99.90;;;;;;7330645;19;109561;-87
2022/12/30 13:53:42;;;;;;;;;;;10.20;99.90;;;;;;7329718;19;110008;-87
2022/12/30 13:56:10;;;;;;;;;;;10.20;99.90;;;;;;7337159;19;109436;-88
2022/12/30 13:58:43;;;;;;;;;;;10.20;99.90;;;;;;7333984;19;110021;-87
2022/12/30 14:01:19;;;;;;;;;;;10.20;99.90;;;;;;7332837;19;109714;-88
2022/12/30 14:03:49;;;;;;;;;;;10.20;99.90;;;;;;7335868;19;109452;-87
2022/12/30 14:06:20;;;;;;;;;;;10.30;99.90;;;;;;7335346;19;112346;-87
2022/12/30 14:08:49;;;;;;;;;;;10.30;99.90;;;;;;7336642;19;109408;-87
2022/12/30 14:11:17;;;;;;;;;;;10.30;99.90;;;;;;7337893;19;109514;-87
2022/12/30 14:14:03;;;;;;;;;;;10.30;99.90;;;;;;7336577;19;111855;-87
2022/12/30 14:16:33;;;;;;;;;;;10.40;99.90;;;;;;7339427;19;108353;-88
2022/12/30 14:19:01;;;;;;;;;;;10.40;99.90;;;;;;7338162;19;110626;-87
2022/12/30 14:21:48;;;;;;;;;;;10.50;99.90;;;;;;7340731;19;110358;-87
2022/12/30 14:24:45;;;;;;;;;;;10.50;99.90;;;;;;7334468;19;109215;-87
2022/12/30 14:27:44;;;;;;;;;;;10.60;99.90;;;;;;7332751;19;111876;-87
2022/12/30 14:30:18;;;;;;;;;;;10.60;99.90;;;;;;7333230;19;108746;-87
2022/12/30 14:32:45;;;;;;;;;;;10.60;99.90;;;;;;7335561;19;110941;-87
2022/12/30 14:35:17;;;;;;;;;;;10.70;99.90;;;;;;7339803;19;111309;-87
2022/12/30 14:37:44;;;;;;;;;;;10.70;99.90;;;;;;7337320;19;110191;-88
2022/12/30 14:40:29;;;;;;;;;;;10.80;99.90;;;;;;7332302;19;109394;-87
2022/12/30 14:42:56;;;;;;;;;;;10.90;99.90;;;;;;7333497;19;109277;-87
2022/12/30 14:45:24;;;;;;;;;;;10.90;99.90;;;;;;7337220;19;109495;-87
2022/12/30 14:47:51;;;;;;;;;;;11.00;99.90;;;;;;7333560;19;110526;-87
2022/12/30 14:50:20;;;;;;;;;;;11.10;99.90;;;;;;7331226;19;108450;-87
2022/12/30 14:52:53;;;;;;;;;;;11.00;99.90;;;;;;7331573;19;109117;-86
2022/12/30 14:55:21;;;;;;;;;;;11.10;99.90;;;;;;7330900;19;111414;-86
2022/12/30 14:57:57;;;;;;;;;;;11.20;99.90;;;;;;7333912;19;109386;-87
2022/12/30 15:00:27;;;;;;;;;;;11.20;99.90;;;;;;7332937;19;112051;-86
2022/12/30 15:02:55;;;;;;;;;;;11.20;99.90;;;;;;7336997;19;110229;-87
2022/12/30 15:05:31;;;;;;;;;;;11.30;99.90;;;;;;7332564;19;109180;-86
2022/12/30 15:07:59;;;;;;;;;;;11.30;99.90;;;;;;7332737;19;110452;-87
2022/12/30 15:10:37;;;;;;;;;;;11.40;99.90;;;;;;7329999;19;108881;-87
2022/12/30 15:13:06;;;;;;;;;;;11.30;99.90;;;;;;7333592;19;109536;-88
2022/12/30 15:15:33;;;;;;;;;;;11.40;99.90;;;;;;7325864;19;110940;-87
2022/12/30 15:18:15;;;;;;;;;;;11.40;99.90;;;;;;7333748;19;109088;-87
2022/12/30 15:20:42;;;;;;;;;;;11.40;99.90;;;;;;7334153;19;108995;-88
2022/12/30 15:23:15;;;;;;;;;;;11.50;99.90;;;;;;7333602;19;111400;-88
2022/12/30 15:25:42;;;;;;;;;;;11.50;99.90;;;;;;7339014;19;108390;-88
2022/12/30 15:28:09;;;;;;;;;;;11.50;99.90;;;;;;7333400;19;110727;-89
2022/12/30 15:30:36;;;;;;;;;;;11.50;99.90;;;;;;7335164;19;108982;-89